Santa Luzia, Brazil
Current Conditions -  °F | °C
As of 6:00 PM on Sunday 23 Nov 2014 (Local Time) from SBCF Reporting Station
Broken Clouds Broken Clouds  
Wind Chill: 70°   Ceiling: 2000
Heat Index: 70°   Visibility: 6mi
Dew Point: 66°   Wind: 10mph
Humidity: 88%   Direction: 110°ESE
Pressure: 29.97"   Gusts: NA
Location:  19.77°S, 43.85°W
Report Text: SBCF 232000Z 11009KT 9999 SCT012 BKN020 21/19 Q1015
Loading
Personal Weather Stations






























Interactive Weather Map New forecast layout! Learn more

10-Day Weather Forecast

Advertisements
Track Severe Weather on mobile